sensor_id;sensor_type;location;lat;lon;timestamp;temperature;humidity
76239;SHT30;65043;48.392;-4.472;2023-04-09T00:02:10;14.84;52.59
76239;SHT30;65043;48.392;-4.472;2023-04-09T00:04:35;14.81;53.01
76239;SHT30;65043;48.392;-4.472;2023-04-09T00:07:01;14.81;52.76
76239;SHT30;65043;48.392;-4.472;2023-04-09T00:09:26;14.79;53.03
76239;SHT30;65043;48.392;-4.472;2023-04-09T00:11:51;14.79;52.96
76239;SHT30;65043;48.392;-4.472;2023-04-09T00:14:17;14.76;53.13
76239;SHT30;65043;48.392;-4.472;2023-04-09T00:16:42;14.72;53.03
76239;SHT30;65043;48.392;-4.472;2023-04-09T00:19:08;14.73;53.15
76239;SHT30;65043;48.392;-4.472;2023-04-09T00:21:33;14.68;53.12
76239;SHT30;65043;48.392;-4.472;2023-04-09T00:23:59;14.66;53.31
76239;SHT30;65043;48.392;-4.472;2023-04-09T00:26:25;14.63;53.52
76239;SHT30;65043;48.392;-4.472;2023-04-09T00:28:50;14.63;53.61
76239;SHT30;65043;48.392;-4.472;2023-04-09T00:31:16;14.59;53.77
76239;SHT30;65043;48.392;-4.472;2023-04-09T00:33:41;14.59;53.91
76239;SHT30;65043;48.392;-4.472;2023-04-09T00:36:07;14.58;53.99
76239;SHT30;65043;48.392;-4.472;2023-04-09T00:38:32;14.56;54.20
76239;SHT30;65043;48.392;-4.472;2023-04-09T00:40:57;14.50;54.33
76239;SHT30;65043;48.392;-4.472;2023-04-09T00:43:23;14.46;54.56
76239;SHT30;65043;48.392;-4.472;2023-04-09T00:45:48;14.43;54.67
76239;SHT30;65043;48.392;-4.472;2023-04-09T00:48:14;14.41;54.75
76239;SHT30;65043;48.392;-4.472;2023-04-09T00:50:41;14.41;55.01
76239;SHT30;65043;48.392;-4.472;2023-04-09T00:53:07;14.38;54.90
76239;SHT30;65043;48.392;-4.472;2023-04-09T00:55:34;14.35;55.07
76239;SHT30;65043;48.392;-4.472;2023-04-09T00:58:00;14.31;55.20
76239;SHT30;65043;48.392;-4.472;2023-04-09T01:00:25;14.26;55.28
76239;SHT30;65043;48.392;-4.472;2023-04-09T01:02:52;14.29;55.41
76239;SHT30;65043;48.392;-4.472;2023-04-09T01:05:20;14.24;55.39
76239;SHT30;65043;48.392;-4.472;2023-04-09T01:10:48;14.20;55.63
76239;SHT30;65043;48.392;-4.472;2023-04-09T01:15:55;14.14;55.86
76239;SHT30;65043;48.392;-4.472;2023-04-09T01:18:28;14.15;55.94
76239;SHT30;65043;48.392;-4.472;2023-04-09T01:21:00;14.12;55.96
76239;SHT30;65043;48.392;-4.472;2023-04-09T01:23:39;14.10;56.05
76239;SHT30;65043;48.392;-4.472;2023-04-09T01:29:04;14.08;56.16
76239;SHT30;65043;48.392;-4.472;2023-04-09T01:31:32;14.07;56.22
76239;SHT30;65043;48.392;-4.472;2023-04-09T01:33:59;14.05;56.29
76239;SHT30;65043;48.392;-4.472;2023-04-09T01:36:25;14.02;56.31
76239;SHT30;65043;48.392;-4.472;2023-04-09T01:38:52;14.00;56.37
76239;SHT30;65043;48.392;-4.472;2023-04-09T01:41:21;14.01;56.40
76239;SHT30;65043;48.392;-4.472;2023-04-09T01:43:50;14.01;56.47
76239;SHT30;65043;48.392;-4.472;2023-04-09T01:46:20;14.02;56.50
76239;SHT30;65043;48.392;-4.472;2023-04-09T01:48:46;14.00;56.62
76239;SHT30;65043;48.392;-4.472;2023-04-09T01:51:13;13.98;56.63
76239;SHT30;65043;48.392;-4.472;2023-04-09T01:53:40;13.98;56.66
76239;SHT30;65043;48.392;-4.472;2023-04-09T01:56:06;13.97;56.63
76239;SHT30;65043;48.392;-4.472;2023-04-09T01:58:32;13.98;56.79
76239;SHT30;65043;48.392;-4.472;2023-04-09T02:01:08;13.98;56.72
76239;SHT30;65043;48.392;-4.472;2023-04-09T02:03:51;13.98;56.83
76239;SHT30;65043;48.392;-4.472;2023-04-09T02:06:33;14.00;56.78
76239;SHT30;65043;48.392;-4.472;2023-04-09T02:09:06;13.98;56.75
76239;SHT30;65043;48.392;-4.472;2023-04-09T02:11:33;13.97;56.66
76239;SHT30;65043;48.392;-4.472;2023-04-09T02:13:59;13.97;56.80
76239;SHT30;65043;48.392;-4.472;2023-04-09T02:16:27;13.95;56.71
76239;SHT30;65043;48.392;-4.472;2023-04-09T02:18:54;13.95;56.75
76239;SHT30;65043;48.392;-4.472;2023-04-09T02:21:26;13.97;56.71
76239;SHT30;65043;48.392;-4.472;2023-04-09T02:23:53;13.97;56.64
76239;SHT30;65043;48.392;-4.472;2023-04-09T02:26:18;13.94;56.65
76239;SHT30;65043;48.392;-4.472;2023-04-09T02:28:43;13.92;56.56
76239;SHT30;65043;48.392;-4.472;2023-04-09T02:31:09;13.97;56.64
76239;SHT30;65043;48.392;-4.472;2023-04-09T02:33:35;13.95;56.59
76239;SHT30;65043;48.392;-4.472;2023-04-09T02:36:00;13.92;56.54
76239;SHT30;65043;48.392;-4.472;2023-04-09T02:38:26;13.92;56.71
76239;SHT30;65043;48.392;-4.472;2023-04-09T02:40:51;13.91;56.56
76239;SHT30;65043;48.392;-4.472;2023-04-09T02:43:16;13.91;56.65
76239;SHT30;65043;48.392;-4.472;2023-04-09T02:45:42;13.88;56.66
76239;SHT30;65043;48.392;-4.472;2023-04-09T02:48:07;13.88;56.71
76239;SHT30;65043;48.392;-4.472;2023-04-09T02:50:33;13.88;56.76
76239;SHT30;65043;48.392;-4.472;2023-04-09T02:52:58;13.87;56.74
76239;SHT30;65043;48.392;-4.472;2023-04-09T02:55:23;13.87;56.80
76239;SHT30;65043;48.392;-4.472;2023-04-09T02:57:49;13.87;56.80
76239;SHT30;65043;48.392;-4.472;2023-04-09T03:00:14;13.85;56.72
76239;SHT30;65043;48.392;-4.472;2023-04-09T03:02:40;13.82;56.90
76239;SHT30;65043;48.392;-4.472;2023-04-09T03:05:06;13.82;56.87
76239;SHT30;65043;48.392;-4.472;2023-04-09T03:07:31;13.81;56.87
76239;SHT30;65043;48.392;-4.472;2023-04-09T03:09:57;13.81;56.87
76239;SHT30;65043;48.392;-4.472;2023-04-09T03:12:22;13.80;56.92
76239;SHT30;65043;48.392;-4.472;2023-04-09T03:14:48;13.78;56.94
76239;SHT30;65043;48.392;-4.472;2023-04-09T03:17:13;13.77;56.94
76239;SHT30;65043;48.392;-4.472;2023-04-09T03:19:39;13.77;57.07
76239;SHT30;65043;48.392;-4.472;2023-04-09T03:22:04;13.75;57.11
76239;SHT30;65043;48.392;-4.472;2023-04-09T03:24:31;13.74;57.08
76239;SHT30;65043;48.392;-4.472;2023-04-09T03:26:57;13.73;57.14
76239;SHT30;65043;48.392;-4.472;2023-04-09T03:29:23;13.73;57.13
76239;SHT30;65043;48.392;-4.472;2023-04-09T03:31:48;13.71;57.09
76239;SHT30;65043;48.392;-4.472;2023-04-09T03:34:13;13.70;57.13
76239;SHT30;65043;48.392;-4.472;2023-04-09T03:36:39;13.66;57.20
76239;SHT30;65043;48.392;-4.472;2023-04-09T03:39:05;13.69;57.31
76239;SHT30;65043;48.392;-4.472;2023-04-09T03:41:30;13.67;57.28
76239;SHT30;65043;48.392;-4.472;2023-04-09T03:43:55;13.67;57.35
76239;SHT30;65043;48.392;-4.472;2023-04-09T03:46:21;13.64;57.37
76239;SHT30;65043;48.392;-4.472;2023-04-09T03:48:47;13.63;57.37
76239;SHT30;65043;48.392;-4.472;2023-04-09T03:51:13;13.63;57.44
76239;SHT30;65043;48.392;-4.472;2023-04-09T03:53:40;13.60;57.43
76239;SHT30;65043;48.392;-4.472;2023-04-09T03:56:06;13.61;57.38
76239;SHT30;65043;48.392;-4.472;2023-04-09T03:58:32;13.60;57.25
76239;SHT30;65043;48.392;-4.472;2023-04-09T04:00:57;13.60;57.31
76239;SHT30;65043;48.392;-4.472;2023-04-09T04:03:22;13.57;57.31
76239;SHT30;65043;48.392;-4.472;2023-04-09T04:05:48;13.54;57.35
76239;SHT30;65043;48.392;-4.472;2023-04-09T04:08:13;13.56;57.46
76239;SHT30;65043;48.392;-4.472;2023-04-09T04:10:39;13.54;57.46
76239;SHT30;65043;48.392;-4.472;2023-04-09T04:13:07;13.52;57.56
76239;SHT30;65043;48.392;-4.472;2023-04-09T04:15:38;13.49;57.51
76239;SHT30;65043;48.392;-4.472;2023-04-09T04:18:03;13.52;57.58
76239;SHT30;65043;48.392;-4.472;2023-04-09T04:20:31;13.52;57.65
76239;SHT30;65043;48.392;-4.472;2023-04-09T04:22:57;13.49;57.52
76239;SHT30;65043;48.392;-4.472;2023-04-09T04:25:22;13.49;57.65
76239;SHT30;65043;48.392;-4.472;2023-04-09T04:27:47;13.46;57.64
76239;SHT30;65043;48.392;-4.472;2023-04-09T04:30:13;13.46;57.62
76239;SHT30;65043;48.392;-4.472;2023-04-09T04:32:38;13.47;57.70
76239;SHT30;65043;48.392;-4.472;2023-04-09T04:35:04;13.44;57.76
76239;SHT30;65043;48.392;-4.472;2023-04-09T04:37:29;13.42;57.89
76239;SHT30;65043;48.392;-4.472;2023-04-09T04:39:55;13.40;57.82
76239;SHT30;65043;48.392;-4.472;2023-04-09T04:42:20;13.40;57.83
76239;SHT30;65043;48.392;-4.472;2023-04-09T04:44:47;13.36;57.90
76239;SHT30;65043;48.392;-4.472;2023-04-09T04:47:12;13.36;57.93
76239;SHT30;65043;48.392;-4.472;2023-04-09T04:49:37;13.35;58.02
76239;SHT30;65043;48.392;-4.472;2023-04-09T04:52:03;13.35;58.05
76239;SHT30;65043;48.392;-4.472;2023-04-09T04:54:28;13.30;58.15
76239;SHT30;65043;48.392;-4.472;2023-04-09T04:56:54;13.29;58.22
76239;SHT30;65043;48.392;-4.472;2023-04-09T04:59:20;13.32;58.25
76239;SHT30;65043;48.392;-4.472;2023-04-09T05:01:45;13.27;58.21
76239;SHT30;65043;48.392;-4.472;2023-04-09T05:04:11;13.27;58.28
76239;SHT30;65043;48.392;-4.472;2023-04-09T05:06:36;13.23;58.42
76239;SHT30;65043;48.392;-4.472;2023-04-09T05:09:01;13.22;58.42
76239;SHT30;65043;48.392;-4.472;2023-04-09T05:11:27;13.20;58.46
76239;SHT30;65043;48.392;-4.472;2023-04-09T05:13:53;13.19;58.47
76239;SHT30;65043;48.392;-4.472;2023-04-09T05:16:19;13.19;58.53
76239;SHT30;65043;48.392;-4.472;2023-04-09T05:18:45;13.16;58.57
76239;SHT30;65043;48.392;-4.472;2023-04-09T05:21:11;13.16;58.67
76239;SHT30;65043;48.392;-4.472;2023-04-09T05:23:36;13.16;58.70
76239;SHT30;65043;48.392;-4.472;2023-04-09T05:26:02;13.13;58.77
76239;SHT30;65043;48.392;-4.472;2023-04-09T05:28:27;13.13;58.78
76239;SHT30;65043;48.392;-4.472;2023-04-09T05:30:52;13.12;58.79
76239;SHT30;65043;48.392;-4.472;2023-04-09T05:33:18;13.12;58.74
76239;SHT30;65043;48.392;-4.472;2023-04-09T05:35:43;13.11;58.80
76239;SHT30;65043;48.392;-4.472;2023-04-09T05:38:09;13.11;58.81
76239;SHT30;65043;48.392;-4.472;2023-04-09T05:40:34;13.09;58.89
76239;SHT30;65043;48.392;-4.472;2023-04-09T05:43:00;13.08;58.92
76239;SHT30;65043;48.392;-4.472;2023-04-09T05:45:27;13.08;58.93
76239;SHT30;65043;48.392;-4.472;2023-04-09T05:47:53;13.06;58.88
76239;SHT30;65043;48.392;-4.472;2023-04-09T05:50:18;13.06;58.91
76239;SHT30;65043;48.392;-4.472;2023-04-09T05:52:44;13.06;58.93
76239;SHT30;65043;48.392;-4.472;2023-04-09T05:55:09;13.06;58.98
76239;SHT30;65043;48.392;-4.472;2023-04-09T05:57:35;13.05;58.99
76239;SHT30;65043;48.392;-4.472;2023-04-09T06:00:01;13.05;58.88
76239;SHT30;65043;48.392;-4.472;2023-04-09T06:02:26;13.05;58.97
76239;SHT30;65043;48.392;-4.472;2023-04-09T06:04:52;13.03;58.95
76239;SHT30;65043;48.392;-4.472;2023-04-09T06:07:18;13.06;58.86
76239;SHT30;65043;48.392;-4.472;2023-04-09T06:09:43;13.06;58.99
76239;SHT30;65043;48.392;-4.472;2023-04-09T06:12:11;13.06;58.93
76239;SHT30;65043;48.392;-4.472;2023-04-09T06:14:37;13.08;58.95
76239;SHT30;65043;48.392;-4.472;2023-04-09T06:17:02;13.08;58.93
76239;SHT30;65043;48.392;-4.472;2023-04-09T06:19:27;13.06;59.01
76239;SHT30;65043;48.392;-4.472;2023-04-09T06:21:53;13.08;59.01
76239;SHT30;65043;48.392;-4.472;2023-04-09T06:24:19;13.12;58.92
76239;SHT30;65043;48.392;-4.472;2023-04-09T06:26:44;13.12;58.80
76239;SHT30;65043;48.392;-4.472;2023-04-09T06:29:10;13.15;58.86
76239;SHT30;65043;48.392;-4.472;2023-04-09T06:31:35;13.18;58.74
76239;SHT30;65043;48.392;-4.472;2023-04-09T06:34:01;13.18;58.73
76239;SHT30;65043;48.392;-4.472;2023-04-09T06:36:26;13.22;58.64
76239;SHT30;65043;48.392;-4.472;2023-04-09T06:38:52;13.20;58.61
76239;SHT30;65043;48.392;-4.472;2023-04-09T06:41:22;13.24;58.53
76239;SHT30;65043;48.392;-4.472;2023-04-09T06:43:48;13.27;58.41
76239;SHT30;65043;48.392;-4.472;2023-04-09T06:46:13;13.27;58.58
76239;SHT30;65043;48.392;-4.472;2023-04-09T06:48:41;13.29;58.67
76239;SHT30;65043;48.392;-4.472;2023-04-09T06:51:09;13.32;58.48
76239;SHT30;65043;48.392;-4.472;2023-04-09T06:53:35;13.32;58.60
76239;SHT30;65043;48.392;-4.472;2023-04-09T06:56:00;13.35;58.60
76239;SHT30;65043;48.392;-4.472;2023-04-09T06:58:26;13.33;58.35
76239;SHT30;65043;48.392;-4.472;2023-04-09T07:00:51;13.38;58.28
76239;SHT30;65043;48.392;-4.472;2023-04-09T07:03:16;13.40;58.27
76239;SHT30;65043;48.392;-4.472;2023-04-09T07:05:42;13.46;58.25
76239;SHT30;65043;48.392;-4.472;2023-04-09T07:08:07;13.46;58.24
76239;SHT30;65043;48.392;-4.472;2023-04-09T07:10:33;13.47;58.09
76239;SHT30;65043;48.392;-4.472;2023-04-09T07:12:58;13.49;58.06
76239;SHT30;65043;48.392;-4.472;2023-04-09T07:15:23;13.53;57.83
76239;SHT30;65043;48.392;-4.472;2023-04-09T07:17:49;13.57;57.82
76239;SHT30;65043;48.392;-4.472;2023-04-09T07:20:14;13.60;57.74
76239;SHT30;65043;48.392;-4.472;2023-04-09T07:22:40;13.61;57.86
76239;SHT30;65043;48.392;-4.472;2023-04-09T07:25:06;13.64;57.83
76239;SHT30;65043;48.392;-4.472;2023-04-09T07:27:31;13.66;57.83
76239;SHT30;65043;48.392;-4.472;2023-04-09T07:29:58;13.71;57.72
76239;SHT30;65043;48.392;-4.472;2023-04-09T07:32:25;13.75;57.66
76239;SHT30;65043;48.392;-4.472;2023-04-09T07:34:52;13.80;57.59
76239;SHT30;65043;48.392;-4.472;2023-04-09T07:37:18;13.80;57.45
76239;SHT30;65043;48.392;-4.472;2023-04-09T07:39:45;13.82;57.47
76239;SHT30;65043;48.392;-4.472;2023-04-09T07:42:10;13.85;57.38
76239;SHT30;65043;48.392;-4.472;2023-04-09T07:44:36;13.88;57.34
76239;SHT30;65043;48.392;-4.472;2023-04-09T07:47:03;13.94;57.29
76239;SHT30;65043;48.392;-4.472;2023-04-09T07:49:29;14.00;57.05
76239;SHT30;65043;48.392;-4.472;2023-04-09T07:51:56;14.05;56.99
76239;SHT30;65043;48.392;-4.472;2023-04-09T07:54:21;14.14;56.83
76239;SHT30;65043;48.392;-4.472;2023-04-09T07:56:47;14.21;56.73
76239;SHT30;65043;48.392;-4.472;2023-04-09T07:59:12;14.26;56.52
76239;SHT30;65043;48.392;-4.472;2023-04-09T08:01:40;14.36;56.39
76239;SHT30;65043;48.392;-4.472;2023-04-09T08:04:05;14.41;56.11
76239;SHT30;65043;48.392;-4.472;2023-04-09T08:06:31;14.43;56.28
76239;SHT30;65043;48.392;-4.472;2023-04-09T08:08:56;14.49;56.05
76239;SHT30;65043;48.392;-4.472;2023-04-09T08:11:22;14.50;56.01
76239;SHT30;65043;48.392;-4.472;2023-04-09T08:13:52;14.56;56.03
76239;SHT30;65043;48.392;-4.472;2023-04-09T08:16:18;14.58;55.90
76239;SHT30;65043;48.392;-4.472;2023-04-09T08:18:45;14.59;55.83
76239;SHT30;65043;48.392;-4.472;2023-04-09T08:21:11;14.59;55.94
76239;SHT30;65043;48.392;-4.472;2023-04-09T08:23:36;14.63;56.02
76239;SHT30;65043;48.392;-4.472;2023-04-09T08:26:02;14.72;55.98
76239;SHT30;65043;48.392;-4.472;2023-04-09T08:28:28;14.75;55.99
76239;SHT30;65043;48.392;-4.472;2023-04-09T08:30:53;14.79;55.97
76239;SHT30;65043;48.392;-4.472;2023-04-09T08:33:18;14.83;55.98
76239;SHT30;65043;48.392;-4.472;2023-04-09T08:35:44;14.84;55.95
76239;SHT30;65043;48.392;-4.472;2023-04-09T08:38:09;14.87;55.71
76239;SHT30;65043;48.392;-4.472;2023-04-09T08:40:36;14.89;55.96
76239;SHT30;65043;48.392;-4.472;2023-04-09T08:43:04;14.90;55.93
76239;SHT30;65043;48.392;-4.472;2023-04-09T08:45:33;14.89;55.85
76239;SHT30;65043;48.392;-4.472;2023-04-09T08:47:58;14.87;56.16
76239;SHT30;65043;48.392;-4.472;2023-04-09T08:50:25;14.90;56.49
76239;SHT30;65043;48.392;-4.472;2023-04-09T08:52:52;14.96;56.44
76239;SHT30;65043;48.392;-4.472;2023-04-09T08:55:17;15.03;56.29
76239;SHT30;65043;48.392;-4.472;2023-04-09T08:57:43;15.06;56.23
76239;SHT30;65043;48.392;-4.472;2023-04-09T09:00:09;15.07;56.24
76239;SHT30;65043;48.392;-4.472;2023-04-09T09:02:35;15.10;56.41
76239;SHT30;65043;48.392;-4.472;2023-04-09T09:05:00;15.10;56.26
76239;SHT30;65043;48.392;-4.472;2023-04-09T09:07:29;15.10;55.82
76239;SHT30;65043;48.392;-4.472;2023-04-09T09:09:59;15.07;55.90
76239;SHT30;65043;48.392;-4.472;2023-04-09T09:12:40;15.07;56.27
76239;SHT30;65043;48.392;-4.472;2023-04-09T09:15:29;15.07;56.15
76239;SHT30;65043;48.392;-4.472;2023-04-09T09:17:56;15.08;56.24
76239;SHT30;65043;48.392;-4.472;2023-04-09T09:20:23;15.10;56.31
76239;SHT30;65043;48.392;-4.472;2023-04-09T09:22:51;15.14;56.70
76239;SHT30;65043;48.392;-4.472;2023-04-09T09:25:16;15.14;56.77
76239;SHT30;65043;48.392;-4.472;2023-04-09T09:27:42;15.12;56.88
76239;SHT30;65043;48.392;-4.472;2023-04-09T09:30:09;15.14;56.94
76239;SHT30;65043;48.392;-4.472;2023-04-09T09:32:44;15.18;56.69
76239;SHT30;65043;48.392;-4.472;2023-04-09T09:35:10;15.23;56.96
76239;SHT30;65043;48.392;-4.472;2023-04-09T09:37:35;15.26;56.92
76239;SHT30;65043;48.392;-4.472;2023-04-09T09:40:01;15.30;56.91
76239;SHT30;65043;48.392;-4.472;2023-04-09T09:42:26;15.31;57.21
76239;SHT30;65043;48.392;-4.472;2023-04-09T09:44:53;15.37;57.65
76239;SHT30;65043;48.392;-4.472;2023-04-09T09:47:20;15.45;57.23
76239;SHT30;65043;48.392;-4.472;2023-04-09T09:49:49;15.47;57.49
76239;SHT30;65043;48.392;-4.472;2023-04-09T09:52:18;15.52;57.31
76239;SHT30;65043;48.392;-4.472;2023-04-09T09:54:47;15.55;57.25
76239;SHT30;65043;48.392;-4.472;2023-04-09T09:57:18;15.55;56.99
76239;SHT30;65043;48.392;-4.472;2023-04-09T09:59:53;15.62;57.00
76239;SHT30;65043;48.392;-4.472;2023-04-09T10:02:22;15.62;57.12
76239;SHT30;65043;48.392;-4.472;2023-04-09T10:04:49;15.66;57.05
76239;SHT30;65043;48.392;-4.472;2023-04-09T10:07:18;15.75;57.15
76239;SHT30;65043;48.392;-4.472;2023-04-09T10:09:48;15.81;56.75
76239;SHT30;65043;48.392;-4.472;2023-04-09T10:12:15;15.81;56.55
76239;SHT30;65043;48.392;-4.472;2023-04-09T10:14:41;15.85;56.79
76239;SHT30;65043;48.392;-4.472;2023-04-09T10:17:07;15.85;56.42
76239;SHT30;65043;48.392;-4.472;2023-04-09T10:19:37;15.88;56.75
76239;SHT30;65043;48.392;-4.472;2023-04-09T10:22:10;15.90;56.83
76239;SHT30;65043;48.392;-4.472;2023-04-09T10:24:37;15.93;56.71
76239;SHT30;65043;48.392;-4.472;2023-04-09T10:27:18;15.98;56.59
76239;SHT30;65043;48.392;-4.472;2023-04-09T10:29:48;16.02;56.23
76239;SHT30;65043;48.392;-4.472;2023-04-09T10:32:20;16.00;56.24
76239;SHT30;65043;48.392;-4.472;2023-04-09T10:34:46;16.03;56.46
76239;SHT30;65043;48.392;-4.472;2023-04-09T10:37:20;16.06;56.27
76239;SHT30;65043;48.392;-4.472;2023-04-09T10:39:47;16.09;56.32
76239;SHT30;65043;48.392;-4.472;2023-04-09T10:42:17;16.08;56.40
76239;SHT30;65043;48.392;-4.472;2023-04-09T10:44:44;16.10;56.77
76239;SHT30;65043;48.392;-4.472;2023-04-09T10:47:10;16.14;56.51
76239;SHT30;65043;48.392;-4.472;2023-04-09T10:49:40;16.19;56.51
76239;SHT30;65043;48.392;-4.472;2023-04-09T10:52:09;16.26;56.37
76239;SHT30;65043;48.392;-4.472;2023-04-09T10:54:37;16.29;56.52
76239;SHT30;65043;48.392;-4.472;2023-04-09T10:59:34;16.33;56.37
76239;SHT30;65043;48.392;-4.472;2023-04-09T11:02:00;16.34;56.61
76239;SHT30;65043;48.392;-4.472;2023-04-09T11:07:26;16.40;57.49
76239;SHT30;65043;48.392;-4.472;2023-04-09T11:09:53;16.36;57.75
76239;SHT30;65043;48.392;-4.472;2023-04-09T11:12:19;16.37;57.82
76239;SHT30;65043;48.392;-4.472;2023-04-09T11:14:44;16.37;58.39
76239;SHT30;65043;48.392;-4.472;2023-04-09T11:17:10;16.37;58.42
76239;SHT30;65043;48.392;-4.472;2023-04-09T11:19:36;16.36;58.34
76239;SHT30;65043;48.392;-4.472;2023-04-09T11:22:03;16.41;57.92
76239;SHT30;65043;48.392;-4.472;2023-04-09T11:24:42;16.44;57.51
76239;SHT30;65043;48.392;-4.472;2023-04-09T11:27:08;16.48;57.43
76239;SHT30;65043;48.392;-4.472;2023-04-09T11:29:34;16.48;57.30
76239;SHT30;65043;48.392;-4.472;2023-04-09T11:32:00;16.48;57.52
76239;SHT30;65043;48.392;-4.472;2023-04-09T11:34:27;16.53;57.34
76239;SHT30;65043;48.392;-4.472;2023-04-09T11:36:52;16.56;57.49
76239;SHT30;65043;48.392;-4.472;2023-04-09T11:39:18;16.63;57.09
76239;SHT30;65043;48.392;-4.472;2023-04-09T11:41:43;16.64;57.03
76239;SHT30;65043;48.392;-4.472;2023-04-09T11:44:09;16.65;57.27
76239;SHT30;65043;48.392;-4.472;2023-04-09T11:46:35;16.70;57.30
76239;SHT30;65043;48.392;-4.472;2023-04-09T11:49:01;16.70;57.38
76239;SHT30;65043;48.392;-4.472;2023-04-09T11:51:27;16.75;57.52
76239;SHT30;65043;48.392;-4.472;2023-04-09T11:53:58;16.77;57.37
76239;SHT30;65043;48.392;-4.472;2023-04-09T11:56:30;16.81;57.51
76239;SHT30;65043;48.392;-4.472;2023-04-09T11:58:57;16.87;56.77
76239;SHT30;65043;48.392;-4.472;2023-04-09T12:01:22;16.89;56.91
76239;SHT30;65043;48.392;-4.472;2023-04-09T12:03:54;16.92;57.21
76239;SHT30;65043;48.392;-4.472;2023-04-09T12:06:21;16.94;56.71
76239;SHT30;65043;48.392;-4.472;2023-04-09T12:08:51;16.92;57.21
76239;SHT30;65043;48.392;-4.472;2023-04-09T12:11:17;16.89;57.39
76239;SHT30;65043;48.392;-4.472;2023-04-09T12:13:44;16.87;57.69
76239;SHT30;65043;48.392;-4.472;2023-04-09T12:16:13;16.84;57.91
76239;SHT30;65043;48.392;-4.472;2023-04-09T12:18:43;16.84;58.40
76239;SHT30;65043;48.392;-4.472;2023-04-09T12:21:08;16.85;58.51
76239;SHT30;65043;48.392;-4.472;2023-04-09T12:23:34;16.82;58.32
76239;SHT30;65043;48.392;-4.472;2023-04-09T12:25:59;16.82;58.00
76239;SHT30;65043;48.392;-4.472;2023-04-09T12:28:26;16.82;58.29
76239;SHT30;65043;48.392;-4.472;2023-04-09T12:30:52;16.82;58.38
76239;SHT30;65043;48.392;-4.472;2023-04-09T12:33:19;16.85;57.94
76239;SHT30;65043;48.392;-4.472;2023-04-09T12:35:44;16.87;57.97
76239;SHT30;65043;48.392;-4.472;2023-04-09T12:38:10;16.82;57.65
76239;SHT30;65043;48.392;-4.472;2023-04-09T12:40:36;16.81;57.70
76239;SHT30;65043;48.392;-4.472;2023-04-09T12:43:01;16.79;57.59
76239;SHT30;65043;48.392;-4.472;2023-04-09T12:45:28;16.79;58.13
76239;SHT30;65043;48.392;-4.472;2023-04-09T12:47:54;16.77;58.06
76239;SHT30;65043;48.392;-4.472;2023-04-09T12:50:20;16.78;58.21
76239;SHT30;65043;48.392;-4.472;2023-04-09T12:52:45;16.75;58.58
76239;SHT30;65043;48.392;-4.472;2023-04-09T12:55:11;16.78;58.33
76239;SHT30;65043;48.392;-4.472;2023-04-09T12:57:38;16.78;58.89
76239;SHT30;65043;48.392;-4.472;2023-04-09T13:00:05;16.79;58.75
76239;SHT30;65043;48.392;-4.472;2023-04-09T13:02:31;16.77;58.29
76239;SHT30;65043;48.392;-4.472;2023-04-09T13:04:58;16.71;58.61
76239;SHT30;65043;48.392;-4.472;2023-04-09T13:07:24;16.64;59.00
76239;SHT30;65043;48.392;-4.472;2023-04-09T13:09:53;16.65;59.30
76239;SHT30;65043;48.392;-4.472;2023-04-09T13:12:18;16.65;59.26
76239;SHT30;65043;48.392;-4.472;2023-04-09T13:14:46;16.71;59.40
76239;SHT30;65043;48.392;-4.472;2023-04-09T13:17:11;16.78;59.22
76239;SHT30;65043;48.392;-4.472;2023-04-09T13:19:37;16.87;59.17
76239;SHT30;65043;48.392;-4.472;2023-04-09T13:22:02;16.89;59.21
76239;SHT30;65043;48.392;-4.472;2023-04-09T13:24:30;16.89;59.52
76239;SHT30;65043;48.392;-4.472;2023-04-09T13:26:55;16.89;59.37
76239;SHT30;65043;48.392;-4.472;2023-04-09T13:29:21;16.89;59.53
76239;SHT30;65043;48.392;-4.472;2023-04-09T13:31:47;16.87;59.96
76239;SHT30;65043;48.392;-4.472;2023-04-09T13:34:13;16.87;59.96
76239;SHT30;65043;48.392;-4.472;2023-04-09T13:36:38;16.85;59.99
76239;SHT30;65043;48.392;-4.472;2023-04-09T13:39:03;16.88;60.78
76239;SHT30;65043;48.392;-4.472;2023-04-09T13:41:32;16.94;60.93
76239;SHT30;65043;48.392;-4.472;2023-04-09T13:43:58;17.01;60.77
76239;SHT30;65043;48.392;-4.472;2023-04-09T13:46:24;17.11;59.80
76239;SHT30;65043;48.392;-4.472;2023-04-09T13:48:49;17.16;59.20
76239;SHT30;65043;48.392;-4.472;2023-04-09T13:51:15;17.18;58.59
76239;SHT30;65043;48.392;-4.472;2023-04-09T13:53:40;17.22;58.29
76239;SHT30;65043;48.392;-4.472;2023-04-09T13:56:06;17.23;58.30
76239;SHT30;65043;48.392;-4.472;2023-04-09T13:58:31;17.19;58.42
76239;SHT30;65043;48.392;-4.472;2023-04-09T14:00:57;17.22;58.23
76239;SHT30;65043;48.392;-4.472;2023-04-09T14:03:22;17.23;57.98
76239;SHT30;65043;48.392;-4.472;2023-04-09T14:05:47;17.25;57.78
76239;SHT30;65043;48.392;-4.472;2023-04-09T14:08:15;17.28;58.15
76239;SHT30;65043;48.392;-4.472;2023-04-09T14:10:40;17.28;58.18
76239;SHT30;65043;48.392;-4.472;2023-04-09T14:13:06;17.29;58.17
76239;SHT30;65043;48.392;-4.472;2023-04-09T14:15:34;17.30;58.24
76239;SHT30;65043;48.392;-4.472;2023-04-09T14:18:01;17.35;58.23
76239;SHT30;65043;48.392;-4.472;2023-04-09T14:20:26;17.35;58.26
76239;SHT30;65043;48.392;-4.472;2023-04-09T14:22:52;17.38;58.15
76239;SHT30;65043;48.392;-4.472;2023-04-09T14:25:17;17.38;58.17
76239;SHT30;65043;48.392;-4.472;2023-04-09T14:27:43;17.38;57.82
76239;SHT30;65043;48.392;-4.472;2023-04-09T14:30:09;17.30;57.94
76239;SHT30;65043;48.392;-4.472;2023-04-09T14:32:34;17.30;58.06
76239;SHT30;65043;48.392;-4.472;2023-04-09T14:35:00;17.28;58.40
76239;SHT30;65043;48.392;-4.472;2023-04-09T14:37:26;17.20;58.62
76239;SHT30;65043;48.392;-4.472;2023-04-09T14:39:52;17.18;58.78
76239;SHT30;65043;48.392;-4.472;2023-04-09T14:42:17;17.16;59.11
76239;SHT30;65043;48.392;-4.472;2023-04-09T14:44:43;17.14;59.12
76239;SHT30;65043;48.392;-4.472;2023-04-09T14:47:08;17.12;59.30
76239;SHT30;65043;48.392;-4.472;2023-04-09T14:49:34;17.15;59.48
76239;SHT30;65043;48.392;-4.472;2023-04-09T14:52:00;17.16;59.71
76239;SHT30;65043;48.392;-4.472;2023-04-09T14:54:25;17.15;60.00
76239;SHT30;65043;48.392;-4.472;2023-04-09T14:56:51;17.16;60.21
76239;SHT30;65043;48.392;-4.472;2023-04-09T14:59:16;17.12;60.43
76239;SHT30;65043;48.392;-4.472;2023-04-09T15:01:42;17.12;60.72
76239;SHT30;65043;48.392;-4.472;2023-04-09T15:04:07;17.11;60.32
76239;SHT30;65043;48.392;-4.472;2023-04-09T15:06:32;17.12;60.69
76239;SHT30;65043;48.392;-4.472;2023-04-09T15:08:58;17.11;60.92
76239;SHT30;65043;48.392;-4.472;2023-04-09T15:11:23;17.08;61.05
76239;SHT30;65043;48.392;-4.472;2023-04-09T15:13:50;17.14;61.06
76239;SHT30;65043;48.392;-4.472;2023-04-09T15:16:26;17.11;61.49
76239;SHT30;65043;48.392;-4.472;2023-04-09T15:18:53;17.14;61.44
76239;SHT30;65043;48.392;-4.472;2023-04-09T15:21:20;17.14;61.50
76239;SHT30;65043;48.392;-4.472;2023-04-09T15:23:48;17.18;61.67
76239;SHT30;65043;48.392;-4.472;2023-04-09T15:26:14;17.16;61.96